sensor_id;sensor_type;location;lat;lon;timestamp;P1;durP1;ratioP1;P2;durP2;ratioP2
19587;SDS011;9940;47.252;8.696;2023-02-24T00:01:16;10.93;;;3.90;;
19587;SDS011;9940;47.252;8.696;2023-02-24T00:03:55;8.02;;;3.90;;
19587;SDS011;9940;47.252;8.696;2023-02-24T00:06:22;12.50;;;4.65;;
19587;SDS011;9940;47.252;8.696;2023-02-24T00:08:48;10.27;;;4.30;;
19587;SDS011;9940;47.252;8.696;2023-02-24T00:11:15;8.57;;;3.75;;
19587;SDS011;9940;47.252;8.696;2023-02-24T00:13:41;11.77;;;3.97;;
19587;SDS011;9940;47.252;8.696;2023-02-24T00:16:14;8.88;;;3.95;;
19587;SDS011;9940;47.252;8.696;2023-02-24T00:18:41;10.00;;;4.05;;
19587;SDS011;9940;47.252;8.696;2023-02-24T00:21:12;7.35;;;3.40;;
19587;SDS011;9940;47.252;8.696;2023-02-24T00:23:39;12.02;;;3.63;;
19587;SDS011;9940;47.252;8.696;2023-02-24T00:26:06;11.02;;;4.15;;
19587;SDS011;9940;47.252;8.696;2023-02-24T00:28:33;10.65;;;4.43;;
19587;SDS011;9940;47.252;8.696;2023-02-24T00:31:06;11.60;;;3.85;;
19587;SDS011;9940;47.252;8.696;2023-02-24T00:33:34;10.88;;;4.22;;
19587;SDS011;9940;47.252;8.696;2023-02-24T00:36:07;8.38;;;4.03;;
19587;SDS011;9940;47.252;8.696;2023-02-24T00:38:34;6.60;;;3.58;;
19587;SDS011;9940;47.252;8.696;2023-02-24T00:43:36;9.13;;;3.78;;
19587;SDS011;9940;47.252;8.696;2023-02-24T00:46:03;6.97;;;3.63;;
19587;SDS011;9940;47.252;8.696;2023-02-24T00:51:06;9.27;;;4.10;;
19587;SDS011;9940;47.252;8.696;2023-02-24T00:53:34;9.20;;;4.05;;
19587;SDS011;9940;47.252;8.696;2023-02-24T00:56:00;9.48;;;3.90;;
19587;SDS011;9940;47.252;8.696;2023-02-24T00:58:26;7.45;;;3.72;;
19587;SDS011;9940;47.252;8.696;2023-02-24T01:00:53;8.45;;;3.95;;
19587;SDS011;9940;47.252;8.696;2023-02-24T01:03:20;9.05;;;3.97;;
19587;SDS011;9940;47.252;8.696;2023-02-24T01:05:46;10.57;;;3.88;;
19587;SDS011;9940;47.252;8.696;2023-02-24T01:08:12;8.73;;;3.90;;
19587;SDS011;9940;47.252;8.696;2023-02-24T01:10:42;10.48;;;4.15;;
19587;SDS011;9940;47.252;8.696;2023-02-24T01:13:28;14.30;;;4.45;;
19587;SDS011;9940;47.252;8.696;2023-02-24T01:15:59;10.35;;;4.10;;
19587;SDS011;9940;47.252;8.696;2023-02-24T01:18:28;8.65;;;4.05;;
19587;SDS011;9940;47.252;8.696;2023-02-24T01:20:57;8.30;;;3.80;;
19587;SDS011;9940;47.252;8.696;2023-02-24T01:23:25;9.35;;;4.10;;
19587;SDS011;9940;47.252;8.696;2023-02-24T01:25:51;12.45;;;4.43;;
19587;SDS011;9940;47.252;8.696;2023-02-24T01:28:22;11.70;;;4.05;;
19587;SDS011;9940;47.252;8.696;2023-02-24T01:30:48;10.20;;;4.35;;
19587;SDS011;9940;47.252;8.696;2023-02-24T01:33:14;9.02;;;4.00;;
19587;SDS011;9940;47.252;8.696;2023-02-24T01:35:40;9.98;;;4.55;;
19587;SDS011;9940;47.252;8.696;2023-02-24T01:38:09;7.72;;;3.97;;
19587;SDS011;9940;47.252;8.696;2023-02-24T01:40:35;9.40;;;3.95;;
19587;SDS011;9940;47.252;8.696;2023-02-24T01:43:02;10.88;;;4.03;;
19587;SDS011;9940;47.252;8.696;2023-02-24T01:45:33;11.55;;;3.63;;
19587;SDS011;9940;47.252;8.696;2023-02-24T01:48:05;7.63;;;4.00;;
19587;SDS011;9940;47.252;8.696;2023-02-24T01:50:33;8.20;;;3.78;;
19587;SDS011;9940;47.252;8.696;2023-02-24T01:53:03;10.20;;;4.13;;
19587;SDS011;9940;47.252;8.696;2023-02-24T01:55:51;10.50;;;4.32;;
19587;SDS011;9940;47.252;8.696;2023-02-24T01:58:23;10.55;;;4.25;;
19587;SDS011;9940;47.252;8.696;2023-02-24T02:00:54;10.85;;;4.65;;
19587;SDS011;9940;47.252;8.696;2023-02-24T02:05:51;8.70;;;3.80;;
19587;SDS011;9940;47.252;8.696;2023-02-24T02:08:18;10.60;;;5.30;;
19587;SDS011;9940;47.252;8.696;2023-02-24T02:10:44;9.95;;;4.47;;
19587;SDS011;9940;47.252;8.696;2023-02-24T02:13:14;9.13;;;4.20;;
19587;SDS011;9940;47.252;8.696;2023-02-24T02:21:42;9.05;;;3.83;;
19587;SDS011;9940;47.252;8.696;2023-02-24T02:31:45;10.82;;;4.80;;
19587;SDS011;9940;47.252;8.696;2023-02-24T02:37:07;11.05;;;4.60;;
19587;SDS011;9940;47.252;8.696;2023-02-24T02:44:36;9.30;;;4.18;;
19587;SDS011;9940;47.252;8.696;2023-02-24T02:49:39;9.98;;;4.03;;
19587;SDS011;9940;47.252;8.696;2023-02-24T02:52:13;14.77;;;4.63;;
19587;SDS011;9940;47.252;8.696;2023-02-24T02:57:38;11.02;;;4.43;;
19587;SDS011;9940;47.252;8.696;2023-02-24T03:00:06;12.00;;;4.38;;
19587;SDS011;9940;47.252;8.696;2023-02-24T03:02:35;10.50;;;4.50;;
19587;SDS011;9940;47.252;8.696;2023-02-24T03:05:04;11.02;;;4.93;;
19587;SDS011;9940;47.252;8.696;2023-02-24T03:07:35;10.23;;;4.88;;
19587;SDS011;9940;47.252;8.696;2023-02-24T03:10:06;15.82;;;5.07;;
19587;SDS011;9940;47.252;8.696;2023-02-24T03:12:41;9.77;;;4.10;;
19587;SDS011;9940;47.252;8.696;2023-02-24T03:15:11;12.90;;;4.93;;
19587;SDS011;9940;47.252;8.696;2023-02-24T03:17:41;11.60;;;4.30;;
19587;SDS011;9940;47.252;8.696;2023-02-24T03:20:12;8.80;;;4.47;;
19587;SDS011;9940;47.252;8.696;2023-02-24T03:25:21;11.60;;;3.90;;
19587;SDS011;9940;47.252;8.696;2023-02-24T03:27:51;8.25;;;4.05;;
19587;SDS011;9940;47.252;8.696;2023-02-24T03:30:26;10.02;;;4.80;;
19587;SDS011;9940;47.252;8.696;2023-02-24T03:32:59;16.83;;;4.45;;
19587;SDS011;9940;47.252;8.696;2023-02-24T03:35:30;9.93;;;4.88;;
19587;SDS011;9940;47.252;8.696;2023-02-24T03:37:58;14.20;;;5.07;;
19587;SDS011;9940;47.252;8.696;2023-02-24T03:40:25;9.02;;;4.53;;
19587;SDS011;9940;47.252;8.696;2023-02-24T03:42:59;8.32;;;4.38;;
19587;SDS011;9940;47.252;8.696;2023-02-24T03:45:30;10.60;;;4.90;;
19587;SDS011;9940;47.252;8.696;2023-02-24T03:47:56;10.88;;;4.55;;
19587;SDS011;9940;47.252;8.696;2023-02-24T03:50:23;15.35;;;4.53;;
19587;SDS011;9940;47.252;8.696;2023-02-24T04:04:17;12.07;;;4.95;;
19587;SDS011;9940;47.252;8.696;2023-02-24T04:06:27;14.15;;;4.60;;
19587;SDS011;9940;47.252;8.696;2023-02-24T04:09:39;10.93;;;4.45;;
19587;SDS011;9940;47.252;8.696;2023-02-24T04:11:51;11.00;;;4.93;;
19587;SDS011;9940;47.252;8.696;2023-02-24T04:14:23;8.23;;;4.28;;
19587;SDS011;9940;47.252;8.696;2023-02-24T04:19:24;9.93;;;4.80;;
19587;SDS011;9940;47.252;8.696;2023-02-24T04:21:53;10.68;;;4.93;;
19587;SDS011;9940;47.252;8.696;2023-02-24T04:24:21;8.82;;;4.00;;
19587;SDS011;9940;47.252;8.696;2023-02-24T04:26:47;10.57;;;4.32;;
19587;SDS011;9940;47.252;8.696;2023-02-24T04:29:18;14.77;;;4.57;;
19587;SDS011;9940;47.252;8.696;2023-02-24T04:31:47;10.73;;;4.97;;
19587;SDS011;9940;47.252;8.696;2023-02-24T04:34:17;11.30;;;4.20;;
19587;SDS011;9940;47.252;8.696;2023-02-24T04:36:47;13.45;;;4.28;;
19587;SDS011;9940;47.252;8.696;2023-02-24T04:39:19;10.48;;;4.65;;
19587;SDS011;9940;47.252;8.696;2023-02-24T04:41:47;11.48;;;4.57;;
19587;SDS011;9940;47.252;8.696;2023-02-24T04:44:18;12.63;;;4.65;;
19587;SDS011;9940;47.252;8.696;2023-02-24T04:46:45;8.90;;;4.88;;
19587;SDS011;9940;47.252;8.696;2023-02-24T04:49:16;13.15;;;5.25;;
19587;SDS011;9940;47.252;8.696;2023-02-24T04:51:42;11.70;;;4.38;;
19587;SDS011;9940;47.252;8.696;2023-02-24T04:54:09;10.52;;;4.90;;
19587;SDS011;9940;47.252;8.696;2023-02-24T04:56:37;12.65;;;4.97;;
19587;SDS011;9940;47.252;8.696;2023-02-24T04:59:05;10.45;;;4.50;;
19587;SDS011;9940;47.252;8.696;2023-02-24T05:01:33;9.38;;;4.45;;
19587;SDS011;9940;47.252;8.696;2023-02-24T05:03:59;14.05;;;5.15;;
19587;SDS011;9940;47.252;8.696;2023-02-24T05:06:25;14.52;;;5.20;;
19587;SDS011;9940;47.252;8.696;2023-02-24T05:08:54;12.57;;;5.20;;
19587;SDS011;9940;47.252;8.696;2023-02-24T05:11:20;10.93;;;4.95;;
19587;SDS011;9940;47.252;8.696;2023-02-24T05:13:46;12.98;;;5.93;;
19587;SDS011;9940;47.252;8.696;2023-02-24T05:16:15;10.45;;;4.90;;
19587;SDS011;9940;47.252;8.696;2023-02-24T05:18:44;15.98;;;6.10;;
19587;SDS011;9940;47.252;8.696;2023-02-24T05:21:11;11.95;;;5.35;;
19587;SDS011;9940;47.252;8.696;2023-02-24T05:23:56;10.85;;;4.65;;
19587;SDS011;9940;47.252;8.696;2023-02-24T05:26:30;11.35;;;5.60;;
19587;SDS011;9940;47.252;8.696;2023-02-24T05:28:58;11.32;;;4.75;;
19587;SDS011;9940;47.252;8.696;2023-02-24T05:31:26;13.43;;;5.07;;
19587;SDS011;9940;47.252;8.696;2023-02-24T05:33:54;10.70;;;5.50;;
19587;SDS011;9940;47.252;8.696;2023-02-24T05:36:24;11.88;;;5.10;;
19587;SDS011;9940;47.252;8.696;2023-02-24T05:38:51;12.20;;;5.50;;
19587;SDS011;9940;47.252;8.696;2023-02-24T05:41:38;11.27;;;5.13;;
19587;SDS011;9940;47.252;8.696;2023-02-24T05:44:06;10.43;;;5.75;;
19587;SDS011;9940;47.252;8.696;2023-02-24T05:46:34;12.52;;;5.10;;
19587;SDS011;9940;47.252;8.696;2023-02-24T05:49:02;14.10;;;5.88;;
19587;SDS011;9940;47.252;8.696;2023-02-24T05:51:30;19.08;;;5.88;;
19587;SDS011;9940;47.252;8.696;2023-02-24T05:54:10;12.65;;;5.00;;
19587;SDS011;9940;47.252;8.696;2023-02-24T05:56:40;16.40;;;5.35;;
19587;SDS011;9940;47.252;8.696;2023-02-24T05:59:08;14.18;;;5.15;;
19587;SDS011;9940;47.252;8.696;2023-02-24T06:01:36;17.23;;;5.60;;
19587;SDS011;9940;47.252;8.696;2023-02-24T06:04:05;13.10;;;5.63;;
19587;SDS011;9940;47.252;8.696;2023-02-24T06:06:37;17.45;;;5.47;;
19587;SDS011;9940;47.252;8.696;2023-02-24T06:09:07;13.30;;;5.63;;
19587;SDS011;9940;47.252;8.696;2023-02-24T06:11:42;14.95;;;5.50;;
19587;SDS011;9940;47.252;8.696;2023-02-24T06:14:09;14.48;;;5.82;;
19587;SDS011;9940;47.252;8.696;2023-02-24T06:16:39;13.98;;;5.38;;
19587;SDS011;9940;47.252;8.696;2023-02-24T06:19:08;14.20;;;5.28;;
19587;SDS011;9940;47.252;8.696;2023-02-24T06:21:34;14.07;;;5.70;;
19587;SDS011;9940;47.252;8.696;2023-02-24T06:24:01;13.98;;;5.00;;
19587;SDS011;9940;47.252;8.696;2023-02-24T06:26:27;12.27;;;5.05;;
19587;SDS011;9940;47.252;8.696;2023-02-24T06:28:58;13.90;;;5.57;;
19587;SDS011;9940;47.252;8.696;2023-02-24T06:31:24;14.48;;;6.20;;
19587;SDS011;9940;47.252;8.696;2023-02-24T06:33:51;10.50;;;5.43;;
19587;SDS011;9940;47.252;8.696;2023-02-24T06:36:21;12.07;;;5.20;;
19587;SDS011;9940;47.252;8.696;2023-02-24T06:38:47;14.55;;;6.13;;
19587;SDS011;9940;47.252;8.696;2023-02-24T06:41:14;13.43;;;6.88;;
19587;SDS011;9940;47.252;8.696;2023-02-24T06:43:40;13.52;;;5.63;;
19587;SDS011;9940;47.252;8.696;2023-02-24T06:46:10;15.88;;;6.25;;
19587;SDS011;9940;47.252;8.696;2023-02-24T06:48:36;15.05;;;6.50;;
19587;SDS011;9940;47.252;8.696;2023-02-24T06:51:03;14.27;;;6.60;;
19587;SDS011;9940;47.252;8.696;2023-02-24T06:53:30;14.80;;;6.15;;
19587;SDS011;9940;47.252;8.696;2023-02-24T06:55:58;11.68;;;6.45;;
19587;SDS011;9940;47.252;8.696;2023-02-24T06:58:31;15.52;;;6.65;;
19587;SDS011;9940;47.252;8.696;2023-02-24T07:00:57;15.23;;;6.13;;
19587;SDS011;9940;47.252;8.696;2023-02-24T07:03:26;15.15;;;5.93;;
19587;SDS011;9940;47.252;8.696;2023-02-24T07:06:13;16.55;;;6.57;;
19587;SDS011;9940;47.252;8.696;2023-02-24T07:08:47;12.43;;;6.13;;
19587;SDS011;9940;47.252;8.696;2023-02-24T07:11:17;13.57;;;5.93;;
19587;SDS011;9940;47.252;8.696;2023-02-24T07:13:43;14.13;;;6.43;;
19587;SDS011;9940;47.252;8.696;2023-02-24T07:16:11;16.02;;;5.72;;
19587;SDS011;9940;47.252;8.696;2023-02-24T07:18:39;16.90;;;6.20;;
19587;SDS011;9940;47.252;8.696;2023-02-24T07:21:14;14.95;;;6.80;;
19587;SDS011;9940;47.252;8.696;2023-02-24T07:23:42;13.52;;;5.80;;
19587;SDS011;9940;47.252;8.696;2023-02-24T07:26:19;11.40;;;6.10;;
19587;SDS011;9940;47.252;8.696;2023-02-24T07:28:48;17.33;;;6.45;;
19587;SDS011;9940;47.252;8.696;2023-02-24T07:31:15;14.82;;;5.55;;
19587;SDS011;9940;47.252;8.696;2023-02-24T07:33:42;20.83;;;6.25;;
19587;SDS011;9940;47.252;8.696;2023-02-24T07:36:10;13.88;;;5.68;;
19587;SDS011;9940;47.252;8.696;2023-02-24T07:38:39;13.70;;;6.25;;
19587;SDS011;9940;47.252;8.696;2023-02-24T07:41:06;13.80;;;6.00;;
19587;SDS011;9940;47.252;8.696;2023-02-24T07:43:32;13.05;;;6.05;;
19587;SDS011;9940;47.252;8.696;2023-02-24T07:48:33;12.75;;;5.90;;
19587;SDS011;9940;47.252;8.696;2023-02-24T07:51:11;15.07;;;5.72;;
19587;SDS011;9940;47.252;8.696;2023-02-24T07:53:39;13.50;;;6.43;;
19587;SDS011;9940;47.252;8.696;2023-02-24T07:56:08;16.25;;;6.13;;
19587;SDS011;9940;47.252;8.696;2023-02-24T07:58:38;13.15;;;6.90;;
19587;SDS011;9940;47.252;8.696;2023-02-24T08:01:06;12.20;;;6.18;;
19587;SDS011;9940;47.252;8.696;2023-02-24T08:03:36;15.05;;;5.85;;
19587;SDS011;9940;47.252;8.696;2023-02-24T08:06:06;17.08;;;6.63;;
19587;SDS011;9940;47.252;8.696;2023-02-24T08:08:50;13.85;;;6.10;;
19587;SDS011;9940;47.252;8.696;2023-02-24T08:11:23;17.40;;;6.35;;
19587;SDS011;9940;47.252;8.696;2023-02-24T08:13:49;13.75;;;6.25;;
19587;SDS011;9940;47.252;8.696;2023-02-24T08:16:16;13.75;;;5.53;;
19587;SDS011;9940;47.252;8.696;2023-02-24T08:18:42;12.32;;;6.10;;
19587;SDS011;9940;47.252;8.696;2023-02-24T08:21:17;16.80;;;6.35;;
19587;SDS011;9940;47.252;8.696;2023-02-24T08:23:45;18.30;;;6.72;;
19587;SDS011;9940;47.252;8.696;2023-02-24T08:26:11;16.35;;;6.47;;
19587;SDS011;9940;47.252;8.696;2023-02-24T08:28:40;14.07;;;6.07;;
19587;SDS011;9940;47.252;8.696;2023-02-24T08:31:06;15.55;;;6.25;;
19587;SDS011;9940;47.252;8.696;2023-02-24T08:33:32;19.27;;;6.13;;
19587;SDS011;9940;47.252;8.696;2023-02-24T08:36:01;17.35;;;6.35;;
19587;SDS011;9940;47.252;8.696;2023-02-24T08:38:29;14.80;;;6.60;;
19587;SDS011;9940;47.252;8.696;2023-02-24T08:41:06;14.70;;;5.78;;
19587;SDS011;9940;47.252;8.696;2023-02-24T08:43:39;16.35;;;6.75;;
19587;SDS011;9940;47.252;8.696;2023-02-24T08:48:43;12.60;;;6.70;;
19587;SDS011;9940;47.252;8.696;2023-02-24T08:53:55;14.95;;;6.38;;
19587;SDS011;9940;47.252;8.696;2023-02-24T08:56:24;15.83;;;7.20;;
19587;SDS011;9940;47.252;8.696;2023-02-24T08:58:54;14.40;;;6.65;;
19587;SDS011;9940;47.252;8.696;2023-02-24T09:01:22;17.70;;;6.97;;
19587;SDS011;9940;47.252;8.696;2023-02-24T09:03:52;13.75;;;7.22;;
19587;SDS011;9940;47.252;8.696;2023-02-24T09:06:23;14.73;;;6.05;;
19587;SDS011;9940;47.252;8.696;2023-02-24T09:08:50;15.35;;;6.57;;
19587;SDS011;9940;47.252;8.696;2023-02-24T09:11:36;13.60;;;6.50;;
19587;SDS011;9940;47.252;8.696;2023-02-24T09:14:08;18.75;;;7.60;;
19587;SDS011;9940;47.252;8.696;2023-02-24T09:16:40;15.23;;;7.13;;
19587;SDS011;9940;47.252;8.696;2023-02-24T09:19:26;18.40;;;7.25;;
19587;SDS011;9940;47.252;8.696;2023-02-24T09:22:25;17.08;;;6.90;;
19587;SDS011;9940;47.252;8.696;2023-02-24T09:25:21;13.98;;;6.60;;
19587;SDS011;9940;47.252;8.696;2023-02-24T09:30:41;12.95;;;6.63;;
19587;SDS011;9940;47.252;8.696;2023-02-24T09:33:30;18.80;;;6.63;;
19587;SDS011;9940;47.252;8.696;2023-02-24T09:38:38;12.98;;;6.43;;
19587;SDS011;9940;47.252;8.696;2023-02-24T09:44:42;12.90;;;5.55;;
19587;SDS011;9940;47.252;8.696;2023-02-24T09:49:41;17.58;;;7.00;;
19587;SDS011;9940;47.252;8.696;2023-02-24T09:52:16;15.82;;;6.95;;
19587;SDS011;9940;47.252;8.696;2023-02-24T09:54:47;15.27;;;5.70;;
19587;SDS011;9940;47.252;8.696;2023-02-24T09:57:33;13.65;;;6.10;;
19587;SDS011;9940;47.252;8.696;2023-02-24T10:00:19;14.35;;;6.43;;
19587;SDS011;9940;47.252;8.696;2023-02-24T10:07:51;15.80;;;7.72;;
19587;SDS011;9940;47.252;8.696;2023-02-24T10:15:37;19.25;;;8.25;;
19587;SDS011;9940;47.252;8.696;2023-02-24T10:21:26;14.68;;;6.28;;
19587;SDS011;9940;47.252;8.696;2023-02-24T10:26:37;14.73;;;6.60;;
19587;SDS011;9940;47.252;8.696;2023-02-24T10:31:59;14.80;;;7.00;;
19587;SDS011;9940;47.252;8.696;2023-02-24T10:34:30;11.20;;;6.20;;
19587;SDS011;9940;47.252;8.696;2023-02-24T10:36:58;18.27;;;7.03;;
19587;SDS011;9940;47.252;8.696;2023-02-24T10:39:25;15.40;;;7.00;;
19587;SDS011;9940;47.252;8.696;2023-02-24T10:42:02;13.80;;;6.78;;
19587;SDS011;9940;47.252;8.696;2023-02-24T10:44:45;13.85;;;6.53;;
19587;SDS011;9940;47.252;8.696;2023-02-24T10:47:24;12.20;;;6.78;;
19587;SDS011;9940;47.252;8.696;2023-02-24T10:49:59;10.25;;;7.20;;
19587;SDS011;9940;47.252;8.696;2023-02-24T10:52:39;13.00;;;7.40;;
19587;SDS011;9940;47.252;8.696;2023-02-24T10:58:10;15.40;;;12.55;;
19587;SDS011;9940;47.252;8.696;2023-02-24T11:00:56;15.40;;;14.20;;
19587;SDS011;9940;47.252;8.696;2023-02-24T11:03:31;17.77;;;14.48;;
19587;SDS011;9940;47.252;8.696;2023-02-24T11:09:04;23.48;;;21.65;;
19587;SDS011;9940;47.252;8.696;2023-02-24T11:11:44;26.40;;;24.50;;
19587;SDS011;9940;47.252;8.696;2023-02-24T11:14:29;20.23;;;18.83;;
19587;SDS011;9940;47.252;8.696;2023-02-24T11:17:23;28.25;;;26.08;;
19587;SDS011;9940;47.252;8.696;2023-02-24T11:20:26;25.05;;;23.35;;
19587;SDS011;9940;47.252;8.696;2023-02-24T11:22:44;38.58;;;36.28;;
19587;SDS011;9940;47.252;8.696;2023-02-24T11:28:01;46.58;;;43.97;;
19587;SDS011;9940;47.252;8.696;2023-02-24T11:30:46;55.75;;;52.35;;
19587;SDS011;9940;47.252;8.696;2023-02-24T11:38:23;53.55;;;50.45;;
19587;SDS011;9940;47.252;8.696;2023-02-24T11:43:35;69.90;;;66.22;;
19587;SDS011;9940;47.252;8.696;2023-02-24T11:46:04;96.80;;;92.15;;
19587;SDS011;9940;47.252;8.696;2023-02-24T11:48:38;124.82;;;118.97;;
19587;SDS011;9940;47.252;8.696;2023-02-24T11:58:37;98.15;;;93.40;;
19587;SDS011;9940;47.252;8.696;2023-02-24T12:03:34;159.43;;;152.32;;
19587;SDS011;9940;47.252;8.696;2023-02-24T12:06:12;193.57;;;185.43;;
19587;SDS011;9940;47.252;8.696;2023-02-24T12:08:40;179.32;;;171.85;;
19587;SDS011;9940;47.252;8.696;2023-02-24T12:13:37;161.68;;;154.65;;
19587;SDS011;9940;47.252;8.696;2023-02-24T12:21:37;203.27;;;195.00;;
19587;SDS011;9940;47.252;8.696;2023-02-24T12:24:07;169.85;;;162.45;;
19587;SDS011;9940;47.252;8.696;2023-02-24T12:32:08;137.40;;;131.10;;
19587;SDS011;9940;47.252;8.696;2023-02-24T12:42:27;190.88;;;182.73;;
19587;SDS011;9940;47.252;8.696;2023-02-24T12:47:33;175.13;;;167.63;;
19587;SDS011;9940;47.252;8.696;2023-02-24T12:52:39;98.78;;;93.95;;
19587;SDS011;9940;47.252;8.696;2023-02-24T13:00:08;39.85;;;37.17;;
19587;SDS011;9940;47.252;8.696;2023-02-24T13:10:17;20.35;;;18.48;;
19587;SDS011;9940;47.252;8.696;2023-02-24T13:12:58;17.40;;;15.82;;
19587;SDS011;9940;47.252;8.696;2023-02-24T13:15:27;15.57;;;14.30;;
19587;SDS011;9940;47.252;8.696;2023-02-24T13:17:56;15.25;;;13.73;;
19587;SDS011;9940;47.252;8.696;2023-02-24T13:23:16;12.98;;;10.55;;
19587;SDS011;9940;47.252;8.696;2023-02-24T13:25:50;12.50;;;11.18;;
19587;SDS011;9940;47.252;8.696;2023-02-24T13:28:30;12.57;;;11.38;;
19587;SDS011;9940;47.252;8.696;2023-02-24T13:31:01;13.70;;;12.40;;
19587;SDS011;9940;47.252;8.696;2023-02-24T13:33:35;13.63;;;12.20;;
19587;SDS011;9940;47.252;8.696;2023-02-24T13:36:11;12.88;;;10.60;;
19587;SDS011;9940;47.252;8.696;2023-02-24T13:38:41;9.40;;;7.32;;
19587;SDS011;9940;47.252;8.696;2023-02-24T13:41:32;11.63;;;9.85;;
19587;SDS011;9940;47.252;8.696;2023-02-24T13:46:26;9.68;;;7.90;;
19587;SDS011;9940;47.252;8.696;2023-02-24T13:49:14;12.05;;;10.50;;
19587;SDS011;9940;47.252;8.696;2023-02-24T13:51:57;11.48;;;7.18;;
19587;SDS011;9940;47.252;8.696;2023-02-24T13:54:32;13.13;;;11.82;;
19587;SDS011;9940;47.252;8.696;2023-02-24T14:02:34;12.45;;;9.02;;
19587;SDS011;9940;47.252;8.696;2023-02-24T14:05:06;14.68;;;8.48;;
19587;SDS011;9940;47.252;8.696;2023-02-24T14:07:34;9.77;;;6.85;;
19587;SDS011;9940;47.252;8.696;2023-02-24T14:10:02;14.55;;;6.95;;
19587;SDS011;9940;47.252;8.696;2023-02-24T14:12:40;14.43;;;6.05;;
19587;SDS011;9940;47.252;8.696;2023-02-24T14:15:26;11.75;;;5.45;;
19587;SDS011;9940;47.252;8.696;2023-02-24T14:17:56;13.30;;;5.85;;
19587;SDS011;9940;47.252;8.696;2023-02-24T14:20:25;13.73;;;6.20;;
19587;SDS011;9940;47.252;8.696;2023-02-24T14:22:53;12.45;;;6.43;;
19587;SDS011;9940;47.252;8.696;2023-02-24T14:25:23;12.60;;;6.32;;
19587;SDS011;9940;47.252;8.696;2023-02-24T14:27:54;16.63;;;5.80;;
19587;SDS011;9940;47.252;8.696;2023-02-24T14:30:22;11.13;;;6.57;;
19587;SDS011;9940;47.252;8.696;2023-02-24T14:32:50;15.07;;;6.45;;
19587;SDS011;9940;47.252;8.696;2023-02-24T14:38:00;10.25;;;5.10;;
19587;SDS011;9940;47.252;8.696;2023-02-24T14:40:28;10.82;;;5.45;;
19587;SDS011;9940;47.252;8.696;2023-02-24T14:42:54;9.95;;;4.60;;
19587;SDS011;9940;47.252;8.696;2023-02-24T14:45:23;13.25;;;4.72;;
19587;SDS011;9940;47.252;8.696;2023-02-24T14:47:51;13.32;;;6.13;;
19587;SDS011;9940;47.252;8.696;2023-02-24T14:50:19;13.70;;;5.47;;
19587;SDS011;9940;47.252;8.696;2023-02-24T14:55:25;10.05;;;4.88;;
19587;SDS011;9940;47.252;8.696;2023-02-24T14:57:58;11.70;;;4.85;;
19587;SDS011;9940;47.252;8.696;2023-02-24T15:00:30;8.07;;;4.10;;
19587;SDS011;9940;47.252;8.696;2023-02-24T15:03:09;10.80;;;4.95;;
19587;SDS011;9940;47.252;8.696;2023-02-24T15:05:45;14.55;;;5.53;;
19587;SDS011;9940;47.252;8.696;2023-02-24T15:08:32;10.60;;;4.60;;
19587;SDS011;9940;47.252;8.696;2023-02-24T15:13:41;16.33;;;4.93;;
19587;SDS011;9940;47.252;8.696;2023-02-24T15:18:50;12.68;;;4.93;;
19587;SDS011;9940;47.252;8.696;2023-02-24T15:21:22;12.77;;;4.60;;
19587;SDS011;9940;47.252;8.696;2023-02-24T15:24:03;12.88;;;5.93;;
19587;SDS011;9940;47.252;8.696;2023-02-24T15:29:23;13.02;;;4.45;;
19587;SDS011;9940;47.252;8.696;2023-02-24T15:31:52;11.40;;;4.05;;
19587;SDS011;9940;47.252;8.696;2023-02-24T15:34:20;13.45;;;3.83;;
19587;SDS011;9940;47.252;8.696;2023-02-24T15:36:47;13.25;;;4.05;;
19587;SDS011;9940;47.252;8.696;2023-02-24T15:39:20;10.48;;;3.40;;
19587;SDS011;9940;47.252;8.696;2023-02-24T15:41:48;15.75;;;3.95;;
19587;SDS011;9940;47.252;8.696;2023-02-24T15:46:47;14.07;;;3.92;;
19587;SDS011;9940;47.252;8.696;2023-02-24T15:49:13;9.73;;;3.88;;
19587;SDS011;9940;47.252;8.696;2023-02-24T15:51:40;15.63;;;4.43;;
19587;SDS011;9940;47.252;8.696;2023-02-24T15:54:09;17.95;;;3.60;;
19587;SDS011;9940;47.252;8.696;2023-02-24T15:56:36;15.90;;;3.95;;
19587;SDS011;9940;47.252;8.696;2023-02-24T15:59:03;14.52;;;3.83;;
19587;SDS011;9940;47.252;8.696;2023-02-24T16:01:30;11.45;;;4.18;;
19587;SDS011;9940;47.252;8.696;2023-02-24T16:03:57;19.92;;;5.25;;
19587;SDS011;9940;47.252;8.696;2023-02-24T16:06:23;18.70;;;4.07;;
19587;SDS011;9940;47.252;8.696;2023-02-24T16:08:52;16.17;;;4.22;;
19587;SDS011;9940;47.252;8.696;2023-02-24T16:11:20;12.38;;;4.40;;
19587;SDS011;9940;47.252;8.696;2023-02-24T16:13:50;16.90;;;3.58;;
19587;SDS011;9940;47.252;8.696;2023-02-24T16:16:19;11.00;;;3.47;;
19587;SDS011;9940;47.252;8.696;2023-02-24T16:18:45;13.75;;;3.53;;
19587;SDS011;9940;47.252;8.696;2023-02-24T16:21:14;23.77;;;3.13;;
19587;SDS011;9940;47.252;8.696;2023-02-24T16:23:42;13.35;;;3.15;;
19587;SDS011;9940;47.252;8.696;2023-02-24T16:26:12;15.73;;;2.95;;
19587;SDS011;9940;47.252;8.696;2023-02-24T16:28:39;19.45;;;3.58;;
19587;SDS011;9940;47.252;8.696;2023-02-24T16:31:08;12.50;;;3.75;;
19587;SDS011;9940;47.252;8.696;2023-02-24T16:33:35;12.40;;;3.33;;
19587;SDS011;9940;47.252;8.696;2023-02-24T16:36:01;12.85;;;2.72;;
19587;SDS011;9940;47.252;8.696;2023-02-24T16:38:27;12.85;;;3.05;;
19587;SDS011;9940;47.252;8.696;2023-02-24T16:40:53;10.65;;;2.50;;
19587;SDS011;9940;47.252;8.696;2023-02-24T16:43:22;15.13;;;2.55;;
19587;SDS011;9940;47.252;8.696;2023-02-24T16:45:49;8.52;;;2.45;;
19587;SDS011;9940;47.252;8.696;2023-02-24T16:48:21;9.05;;;1.55;;
19587;SDS011;9940;47.252;8.696;2023-02-24T16:50:51;9.98;;;2.08;;
19587;SDS011;9940;47.252;8.696;2023-02-24T16:53:21;13.20;;;2.47;;
19587;SDS011;9940;47.252;8.696;2023-02-24T16:55:48;7.40;;;2.42;;
19587;SDS011;9940;47.252;8.696;2023-02-24T16:58:14;9.30;;;2.35;;
19587;SDS011;9940;47.252;8.696;2023-02-24T17:00:42;14.50;;;2.28;;
19587;SDS011;9940;47.252;8.696;2023-02-24T17:03:14;9.73;;;2.17;;
19587;SDS011;9940;47.252;8.696;2023-02-24T17:05:44;11.38;;;2.10;;
19587;SDS011;9940;47.252;8.696;2023-02-24T17:08:10;14.70;;;2.72;;
19587;SDS011;9940;47.252;8.696;2023-02-24T17:10:39;7.82;;;1.75;;
19587;SDS011;9940;47.252;8.696;2023-02-24T17:13:11;9.13;;;1.80;;
19587;SDS011;9940;47.252;8.696;2023-02-24T17:15:38;8.70;;;2.08;;
19587;SDS011;9940;47.252;8.696;2023-02-24T17:18:05;9.13;;;2.08;;
19587;SDS011;9940;47.252;8.696;2023-02-24T17:20:33;7.25;;;2.33;;
19587;SDS011;9940;47.252;8.696;2023-02-24T17:23:00;7.78;;;2.00;;
19587;SDS011;9940;47.252;8.696;2023-02-24T17:25:27;12.57;;;2.35;;
19587;SDS011;9940;47.252;8.696;2023-02-24T17:27:56;12.65;;;2.85;;
19587;SDS011;9940;47.252;8.696;2023-02-24T17:30:23;11.00;;;2.38;;
19587;SDS011;9940;47.252;8.696;2023-02-24T17:32:52;9.35;;;2.00;;
19587;SDS011;9940;47.252;8.696;2023-02-24T17:35:18;9.88;;;2.20;;
19587;SDS011;9940;47.252;8.696;2023-02-24T17:37:44;12.13;;;2.05;;
19587;SDS011;9940;47.252;8.696;2023-02-24T17:40:11;17.25;;;3.10;;
19587;SDS011;9940;47.252;8.696;2023-02-24T17:42:39;13.55;;;4.30;;
19587;SDS011;9940;47.252;8.696;2023-02-24T17:45:06;9.95;;;2.53;;
19587;SDS011;9940;47.252;8.696;2023-02-24T17:47:33;12.45;;;2.95;;
19587;SDS011;9940;47.252;8.696;2023-02-24T17:49:59;10.93;;;2.88;;
19587;SDS011;9940;47.252;8.696;2023-02-24T17:52:26;12.40;;;3.60;;
19587;SDS011;9940;47.252;8.696;2023-02-24T17:54:55;13.63;;;3.85;;
19587;SDS011;9940;47.252;8.696;2023-02-24T17:57:21;10.77;;;3.35;;
19587;SDS011;9940;47.252;8.696;2023-02-24T17:59:47;12.45;;;3.03;;
19587;SDS011;9940;47.252;8.696;2023-02-24T18:02:14;18.02;;;3.47;;
19587;SDS011;9940;47.252;8.696;2023-02-24T18:04:40;13.27;;;3.25;;
19587;SDS011;9940;47.252;8.696;2023-02-24T18:07:07;9.95;;;3.88;;
19587;SDS011;9940;47.252;8.696;2023-02-24T18:09:33;16.08;;;3.20;;